Time;durP1;ratioP1;P1;durP2;ratioP2;P2;SDS_P1;SDS_P2;PMS_P1;PMS_P2;Temp;Humidity;BMP_temperature;BMP_pressure;BME280_temperature;BME280_humidity;BME280_pressure;Samples;Min_cycle;Max_cycle;Signal;HPM_P1;HPM_P2
2024/03/10 05:01:54;;;;;;;19.53;4.20;;;3.00;97.30;;;;;;5405011;23;20491;-84
2024/03/10 05:04:20;;;;;;;6.43;4.80;;;3.00;97.30;;;;;;4966132;28;20437;-85
2024/03/10 05:06:45;;;;;;;7.77;3.73;;;2.90;97.30;;;;;;4965247;28;20179;-86
2024/03/10 05:09:11;;;;;;;10.20;4.00;;;2.80;97.30;;;;;;4964864;28;20444;-85
2024/03/10 05:11:36;;;;;;;7.20;5.03;;;2.80;97.30;;;;;;4965199;28;20235;-85
2024/03/10 05:14:01;;;;;;;10.87;5.10;;;2.80;97.30;;;;;;4973363;28;20189;-83
2024/03/10 05:16:27;;;;;;;5.20;3.63;;;2.80;97.30;;;;;;4977847;28;20178;-84
2024/03/10 05:18:54;;;;;;;10.27;5.33;;;2.70;97.30;;;;;;4986744;28;20461;-86
2024/03/10 05:21:20;;;;;;;6.13;4.60;;;2.70;97.30;;;;;;4966921;28;20441;-85
2024/03/10 05:23:45;;;;;;;10.73;5.20;;;2.70;97.30;;;;;;4962403;28;20490;-86
2024/03/10 05:26:10;;;;;;;5.97;5.67;;;2.60;97.30;;;;;;4982345;28;20277;-84
2024/03/10 05:28:37;;;;;;;7.70;5.33;;;2.60;97.30;;;;;;4961432;28;20188;-85
2024/03/10 05:31:02;;;;;;;5.30;5.00;;;2.60;97.30;;;;;;4979040;28;20206;-85
2024/03/10 05:33:28;;;;;;;10.50;5.07;;;2.50;97.30;;;;;;4940049;28;20453;-86
2024/03/10 05:35:54;;;;;;;6.47;3.30;;;2.40;97.30;;;;;;4958083;28;20194;-85
2024/03/10 05:38:19;;;;;;;7.83;5.10;;;2.40;97.30;;;;;;4961826;28;20257;-85
2024/03/10 05:40:45;;;;;;;6.90;3.13;;;2.40;97.30;;;;;;4958520;28;20747;-84
2024/03/10 05:43:10;;;;;;;7.80;4.87;;;2.40;97.30;;;;;;4959548;28;20179;-83
2024/03/10 05:45:36;;;;;;;6.90;3.30;;;2.40;97.30;;;;;;4970125;28;20178;-84
2024/03/10 05:48:01;;;;;;;5.53;4.43;;;2.40;97.30;;;;;;4958684;28;20663;-84
2024/03/10 05:50:29;;;;;;;5.37;4.17;;;2.40;97.30;;;;;;4961576;28;20210;-85
2024/03/10 05:52:54;;;;;;;9.80;2.83;;;2.40;97.30;;;;;;4964358;28;20179;-82
2024/03/10 05:55:20;;;;;;;4.60;4.30;;;2.40;97.30;;;;;;4963244;28;21039;-84
2024/03/10 05:57:46;;;;;;;4.73;3.53;;;2.40;97.30;;;;;;4960943;28;20702;-84
2024/03/10 06:00:14;;;;;;;5.30;4.17;;;2.50;97.30;;;;;;4959697;28;20422;-86
2024/03/10 06:02:48;;;;;;;4.47;2.70;;;2.50;97.30;;;;;;4962032;28;20230;-87
2024/03/10 06:05:13;;;;;;;4.33;3.90;;;2.50;97.30;;;;;;4997954;28;20421;-87
2024/03/10 06:07:43;;;;;;;8.90;4.67;;;2.50;97.30;;;;;;4978041;28;20410;-85
2024/03/10 06:10:10;;;;;;;5.80;2.70;;;2.60;97.30;;;;;;4968207;28;20206;-85
2024/03/10 06:12:37;;;;;;;5.53;3.70;;;2.60;97.30;;;;;;4965729;28;20442;-84
2024/03/10 06:15:03;;;;;;;3.77;2.80;;;2.60;97.30;;;;;;4955812;28;20430;-83
2024/03/10 06:17:33;;;;;;;4.90;4.00;;;2.60;97.30;;;;;;4960366;28;20424;-85
2024/03/10 06:25:27;;;;;;;9.20;3.73;;;2.70;97.30;;;;;;4974780;28;20504;-85
2024/03/10 06:27:56;;;;;;;3.10;2.90;;;2.80;97.30;;;;;;4960130;28;20453;-86
2024/03/10 06:30:23;;;;;;;13.23;5.33;;;2.90;97.30;;;;;;4971838;28;20633;-87
2024/03/10 06:32:49;;;;;;;2.60;2.40;;;3.00;97.30;;;;;;4958772;28;20862;-88
2024/03/10 06:35:16;;;;;;;6.23;3.17;;;3.10;97.30;;;;;;4959874;28;20414;-87
2024/03/10 06:37:42;;;;;;;4.80;3.17;;;3.10;97.30;;;;;;4953610;28;20485;-87
2024/03/10 06:40:09;;;;;;;5.20;4.27;;;3.20;97.30;;;;;;4972824;28;20887;-89
2024/03/10 06:42:34;;;;;;;6.10;5.77;;;3.30;97.30;;;;;;4959568;28;20627;-87
2024/03/10 06:45:00;;;;;;;7.23;6.13;;;3.40;97.30;;;;;;4961194;28;20430;-87
2024/03/10 06:47:26;;;;;;;10.30;3.10;;;3.40;97.30;;;;;;4962510;28;20235;-87
2024/03/10 06:49:51;;;;;;;5.20;2.87;;;3.50;97.30;;;;;;4959884;28;20232;-87
2024/03/10 06:52:18;;;;;;;5.70;4.40;;;3.60;97.30;;;;;;4967784;28;20288;-88
2024/03/10 06:54:43;;;;;;;6.13;5.80;;;3.60;97.30;;;;;;4968626;28;20209;-86
2024/03/10 06:57:09;;;;;;;14.00;5.10;;;3.70;97.30;;;;;;4971331;28;20435;-88
2024/03/10 06:59:34;;;;;;;3.90;3.30;;;3.80;97.30;;;;;;4953640;28;20181;-89
2024/03/10 07:02:00;;;;;;;4.47;3.73;;;3.80;97.30;;;;;;4968665;28;20226;-87
2024/03/10 07:04:29;;;;;;;4.03;3.80;;;3.90;97.30;;;;;;4968064;28;20475;-88
2024/03/10 07:06:57;;;;;;;3.43;3.23;;;4.00;97.30;;;;;;4967650;28;20624;-89
2024/03/10 07:09:23;;;;;;;5.50;3.87;;;4.10;97.30;;;;;;4969758;28;20433;-88
2024/03/10 07:11:49;;;;;;;6.37;4.63;;;4.20;97.30;;;;;;4971103;28;20541;-87
2024/03/10 07:14:15;;;;;;;6.33;3.70;;;4.30;97.30;;;;;;4969775;28;20181;-87
2024/03/10 07:16:47;;;;;;;7.20;3.13;;;4.40;97.30;;;;;;4954248;28;20266;-87
2024/03/10 07:19:16;;;;;;;3.23;2.90;;;4.50;97.30;;;;;;4967938;28;20422;-85
2024/03/10 07:21:42;;;;;;;5.73;5.43;;;4.70;97.30;;;;;;4972257;28;20449;-86
2024/03/10 07:24:11;;;;;;;2.80;2.60;;;4.80;97.30;;;;;;4969950;28;20952;-87
2024/03/10 07:29:53;;;;;;;6.97;3.50;;;4.90;97.30;;;;;;4967882;28;20432;-87
2024/03/10 07:32:22;;;;;;;9.03;5.90;;;4.90;97.30;;;;;;4971872;28;20442;-90
2024/03/10 07:34:53;;;;;;;8.73;5.37;;;4.90;97.30;;;;;;4951987;28;20441;-88
2024/03/10 07:37:34;;;;;;;;;;;;;;;;;;;;;
2024/03/10 07:40:11;;;;;;;7.23;2.80;;;5.10;97.30;;;;;;4901473;29;20439;-89
2024/03/10 07:42:52;;;;;;;5.13;4.47;;;5.20;97.30;;;;;;4958362;28;20445;-88
2024/03/10 07:45:21;;;;;;;11.07;5.07;;;5.20;97.30;;;;;;4966901;28;20477;-87
2024/03/10 07:47:52;;;;;;;3.37;3.17;;;5.20;97.30;;;;;;4952429;28;20431;-90
2024/03/10 07:50:52;;;;;;;8.53;6.60;;;5.30;97.30;;;;;;4951188;28;20561;-90
2024/03/10 07:53:43;;;;;;;5.03;3.70;;;5.40;97.30;;;;;;4960601;28;20853;-88
2024/03/10 07:56:24;;;;;;;30.03;4.27;;;5.40;97.30;;;;;;4970226;28;20438;-87
2024/03/10 07:58:54;;;;;;;6.40;4.20;;;5.50;97.30;;;;;;4965626;28;21006;-87
2024/03/10 08:01:23;;;;;;;5.90;4.80;;;5.60;97.30;;;;;;4976933;28;20461;-87
2024/03/10 08:03:54;;;;;;;8.23;3.20;;;5.60;97.30;;;;;;4979347;28;20432;-83
2024/03/10 08:06:22;;;;;;;8.07;4.57;;;5.70;97.30;;;;;;4972861;28;20706;-89
2024/03/10 08:08:52;;;;;;;5.07;4.80;;;5.80;97.30;;;;;;4965147;28;20429;-86
2024/03/10 08:11:23;;;;;;;5.90;4.10;;;5.90;97.30;;;;;;4965378;28;20496;-84
2024/03/10 08:13:51;;;;;;;7.13;3.23;;;6.00;97.30;;;;;;4964757;28;20488;-87
2024/03/10 08:16:20;;;;;;;5.90;5.60;;;6.00;97.30;;;;;;4952605;28;20924;-88
2024/03/10 08:19:21;;;;;;;4.97;4.40;;;6.10;97.30;;;;;;4982016;28;20433;-87
2024/03/10 08:22:01;;;;;;;3.97;3.57;;;6.20;97.30;;;;;;4904033;29;20494;-88
2024/03/10 08:24:32;;;;;;;5.60;5.30;;;6.20;97.30;;;;;;4901229;29;20428;-88
2024/03/10 08:27:01;;;;;;;8.50;7.00;;;6.30;97.30;;;;;;4906009;29;20942;-88
2024/03/10 08:29:33;;;;;;;11.10;5.17;;;6.40;97.30;;;;;;4913544;29;20456;-88
2024/03/10 08:32:14;;;;;;;;;;;;;;;;;;;;;
2024/03/10 08:34:43;;;;;;;12.60;4.70;;;6.60;97.30;;;;;;4916989;29;20427;-87
2024/03/10 08:37:22;;;;;;;9.93;5.10;;;6.70;97.30;;;;;;4953652;28;20428;-87
2024/03/10 08:40:35;;;;;;;;;;;;;;;;;;;;;
2024/03/10 08:43:03;;;;;;;7.73;3.17;;;6.80;97.30;;;;;;4987768;28;20426;-85
2024/03/10 08:46:23;;;;;;;35.47;7.33;;;6.90;97.30;;;;;;4964436;28;20800;-85
2024/03/10 08:48:44;;;;;;;12.40;4.93;;;7.00;97.30;;;;;;4980376;28;20492;-85
2024/03/10 08:51:13;;;;;;;3.97;3.20;;;7.10;97.30;;;;;;4975455;28;20594;-85
2024/03/10 08:57:01;;;;;;;5.50;4.33;;;7.30;97.30;;;;;;4964604;28;20771;-85
2024/03/10 08:59:32;;;;;;;7.23;3.67;;;7.30;97.30;;;;;;4967137;28;20831;-85
2024/03/10 09:02:33;;;;;;;15.50;4.23;;;7.40;97.30;;;;;;4966992;28;20480;-85
2024/03/10 09:05:15;;;;;;;7.17;5.13;;;7.50;97.30;;;;;;4865592;29;20430;-85
2024/03/10 09:08:01;;;;;;;17.40;5.00;;;7.70;97.30;;;;;;4866674;29;20434;-85
2024/03/10 09:10:51;;;;;;;;;;;;;;;;;;;;;
2024/03/10 09:13:23;;;;;;;6.93;3.53;;;7.80;97.30;;;;;;4992272;28;20435;-85
2024/03/10 09:16:13;;;;;;;15.50;4.70;;;8.00;97.30;;;;;;4960440;28;20417;-85
2024/03/10 09:18:42;;;;;;;8.37;4.80;;;8.10;97.30;;;;;;4964826;28;20418;-86
2024/03/10 09:21:14;;;;;;;5.00;4.07;;;8.20;97.30;;;;;;4963573;28;20452;-86
2024/03/10 09:23:43;;;;;;;7.13;4.40;;;8.20;97.30;;;;;;4966529;28;20433;-85
2024/03/10 09:26:13;;;;;;;8.97;4.73;;;8.30;97.30;;;;;;4967240;28;20479;-85
2024/03/10 09:28:45;;;;;;;15.73;8.50;;;8.40;97.30;;;;;;4967057;28;20858;-85
2024/03/10 09:31:14;;;;;;;7.33;4.17;;;8.50;97.30;;;;;;4959716;28;20561;-85
2024/03/10 09:34:04;;;;;;;;;;;;;;;;;;;;;
2024/03/10 09:37:02;;;;;;;11.20;6.40;;;8.60;97.30;;;;;;4970592;28;20788;-85
2024/03/10 09:40:05;;;;;;;11.87;5.50;;;8.60;97.30;;;;;;4954229;28;20462;-85
2024/03/10 09:43:15;;;;;;;17.10;7.20;;;8.70;97.30;;;;;;4966481;28;20458;-85
2024/03/10 09:45:54;;;;;;;3.90;1.90;;;8.80;97.30;;;;;;4962938;28;20548;-85
2024/03/10 09:48:23;;;;;;;3.73;2.93;;;8.80;97.30;;;;;;4963435;28;20488;-86
2024/03/10 09:50:52;;;;;;;7.50;3.63;;;8.90;97.30;;;;;;4953451;28;20473;-86
2024/03/10 09:53:31;;;;;;;7.03;4.77;;;9.00;97.30;;;;;;4958419;28;20434;-85
2024/03/10 09:56:12;;;;;;;8.73;3.60;;;9.10;97.30;;;;;;4962544;28;20484;-81
2024/03/10 09:59:44;;;;;;;;;;;;;;;;;;;;;
2024/03/10 10:06:30;;;;;;;10.77;3.77;;;9.20;97.30;;;;;;4874329;29;21551;-83
2024/03/10 10:09:07;;;;;;;8.40;4.57;;;9.30;97.30;;;;;;4852032;29;20502;-83
2024/03/10 10:11:50;;;;;;;13.43;6.70;;;9.40;97.30;;;;;;4875361;29;20598;-85
2024/03/10 10:14:44;;;;;;;7.60;4.93;;;9.50;97.30;;;;;;4863379;29;20492;-87
2024/03/10 10:17:22;;;;;;;5.17;4.87;;;9.50;97.30;;;;;;4900213;29;20421;-89
2024/03/10 10:19:51;;;;;;;4.30;4.03;;;9.60;97.30;;;;;;4964148;28;20440;-89
2024/03/10 10:22:34;;;;;;;5.00;2.90;;;9.70;97.30;;;;;;4991805;28;20444;-84
2024/03/10 10:25:13;;;;;;;6.57;4.77;;;9.80;97.30;;;;;;4973964;28;20417;-85
2024/03/10 10:27:54;;;;;;;4.00;3.80;;;10.00;97.30;;;;;;4968800;28;20421;-86
2024/03/10 10:30:31;;;;;;;6.30;4.90;;;10.00;97.30;;;;;;4970841;28;20835;-84
2024/03/10 10:33:22;;;;;;;10.47;4.80;;;10.20;97.30;;;;;;4967862;28;20421;-86
2024/03/10 10:36:23;;;;;;;5.83;3.90;;;10.30;97.30;;;;;;4969630;28;20468;-87
2024/03/10 10:38:51;;;;;;;6.93;5.97;;;10.50;97.30;;;;;;4951743;28;20791;-86
2024/03/10 10:41:52;;;;;;;13.70;3.63;;;10.60;97.30;;;;;;4992055;28;20463;-86
2024/03/10 10:44:51;;;;;;;;;;;;;;;;;;;;;
2024/03/10 10:47:23;;;;;;;9.50;5.53;;;10.70;97.30;;;;;;4975058;28;20938;-89
2024/03/10 10:53:53;;;;;;;;;;;;;;;;;;;;;
2024/03/10 10:56:42;;;;;;;9.30;6.27;;;11.40;97.30;;;;;;4916267;29;20432;-87
2024/03/10 10:59:32;;;;;;;7.80;5.63;;;11.40;97.30;;;;;;4900615;29;20420;-84
2024/03/10 11:02:44;;;;;;;9.87;4.60;;;11.40;97.30;;;;;;4919302;29;20486;-83
2024/03/10 11:05:13;;;;;;;6.40;2.50;;;11.30;97.30;;;;;;4953046;28;20816;-86
2024/03/10 11:07:45;;;;;;;9.43;4.37;;;11.20;97.30;;;;;;4962906;28;20689;-87
2024/03/10 11:10:40;;;;;;;5.10;3.47;;;11.20;97.30;;;;;;4955171;28;20512;-86
2024/03/10 11:13:07;;;;;;;3.13;2.93;;;11.20;97.30;;;;;;4965270;28;21228;-86
2024/03/10 11:15:33;;;;;;;9.33;4.60;;;11.20;97.30;;;;;;4963260;28;20497;-87
2024/03/10 11:18:19;;;;;;;3.43;2.57;;;11.30;97.30;;;;;;4967756;28;20422;-83
2024/03/10 11:20:46;;;;;;;5.43;5.13;;;11.30;97.30;;;;;;4980132;23;20204;-64
2024/03/10 11:23:11;;;;;;;6.10;5.10;;;11.30;97.30;;;;;;4975875;28;20441;-64
2024/03/10 11:25:37;;;;;;;6.23;3.13;;;11.40;97.30;;;;;;4975264;28;20954;-64
2024/03/10 11:28:04;;;;;;;6.53;5.07;;;11.50;97.30;;;;;;5000912;28;20350;-64
2024/03/10 11:30:41;;;;;;;6.20;3.40;;;11.50;97.30;;;;;;4973506;28;20226;-64
2024/03/10 11:33:07;;;;;;;2.60;2.40;;;11.50;97.30;;;;;;4991561;28;20459;-64
2024/03/10 11:35:36;;;;;;;6.50;3.90;;;11.50;97.30;;;;;;4974389;28;20429;-64
2024/03/10 11:38:04;;;;;;;10.43;4.13;;;11.50;97.30;;;;;;4981101;28;20526;-64
2024/03/10 11:40:30;;;;;;;4.60;4.23;;;11.50;97.30;;;;;;4991255;28;20464;-64
2024/03/10 11:43:00;;;;;;;4.23;3.97;;;11.50;97.30;;;;;;4980868;28;20425;-63
2024/03/10 11:45:26;;;;;;;3.60;2.80;;;11.50;97.30;;;;;;4983394;28;20445;-64
2024/03/10 11:47:54;;;;;;;6.23;3.83;;;11.60;97.30;;;;;;4990922;28;20983;-64
2024/03/10 11:50:20;;;;;;;6.33;4.20;;;11.50;97.30;;;;;;4973439;28;20259;-63
2024/03/10 11:52:45;;;;;;;10.10;5.93;;;11.60;97.30;;;;;;4987953;28;20417;-63
2024/03/10 11:55:13;;;;;;;7.40;4.20;;;11.70;97.30;;;;;;4968974;28;20209;-64
2024/03/10 11:57:40;;;;;;;13.20;6.73;;;11.70;97.30;;;;;;4990745;28;20182;-63
2024/03/10 12:00:14;;;;;;;4.53;3.40;;;11.70;97.30;;;;;;4990401;28;20425;-63
2024/03/10 12:02:40;;;;;;;2.97;2.77;;;11.80;97.30;;;;;;4971203;28;20515;-63
2024/03/10 12:05:06;;;;;;;5.07;4.07;;;11.80;97.30;;;;;;4973325;28;21048;-64
2024/03/10 12:07:35;;;;;;;11.00;6.03;;;11.80;97.30;;;;;;4990641;28;20212;-64
2024/03/10 12:10:01;;;;;;;7.93;5.40;;;11.80;97.30;;;;;;4972787;28;20443;-63
2024/03/10 12:12:30;;;;;;;12.40;5.00;;;11.90;97.30;;;;;;4990575;28;20441;-63
2024/03/10 12:14:56;;;;;;;10.73;5.53;;;12.00;97.30;;;;;;4980380;28;20421;-64
2024/03/10 12:17:22;;;;;;;6.87;4.67;;;12.00;97.30;;;;;;4973131;28;20452;-64
2024/03/10 12:19:48;;;;;;;9.83;4.53;;;12.10;97.30;;;;;;4990037;28;20448;-64
2024/03/10 12:22:14;;;;;;;4.63;3.90;;;12.20;97.30;;;;;;4990363;28;20622;-64
2024/03/10 12:24:40;;;;;;;9.07;4.33;;;12.20;97.30;;;;;;4972768;28;20479;-63
2024/03/10 12:27:09;;;;;;;8.70;4.50;;;12.30;97.30;;;;;;4956680;28;20188;-65
2024/03/10 12:29:45;;;;;;;9.50;3.70;;;12.40;97.30;;;;;;4951525;28;20745;-64
2024/03/10 12:32:12;;;;;;;5.30;2.87;;;12.50;97.30;;;;;;4966798;28;20951;-64
2024/03/10 12:34:38;;;;;;;3.20;3.00;;;12.50;97.30;;;;;;4990316;28;20785;-64
2024/03/10 12:37:04;;;;;;;6.77;4.20;;;12.70;97.30;;;;;;4969161;28;20421;-64
2024/03/10 12:39:30;;;;;;;5.33;2.83;;;13.00;97.30;;;;;;4964913;28;20178;-64
2024/03/10 12:41:55;;;;;;;4.97;3.60;;;13.20;97.10;;;;;;4988761;28;20804;-64
2024/03/10 12:44:21;;;;;;;4.43;4.07;;;13.50;96.90;;;;;;4957710;28;20190;-64
2024/03/10 12:46:47;;;;;;;7.93;4.73;;;13.70;96.20;;;;;;4986583;28;20182;-63
2024/03/10 12:49:12;;;;;;;7.80;4.87;;;14.10;96.40;;;;;;4989995;28;20192;-64
2024/03/10 12:51:38;;;;;;;4.60;3.77;;;14.30;94.60;;;;;;4982023;28;20210;-64
2024/03/10 12:54:05;;;;;;;8.93;4.63;;;14.70;94.40;;;;;;4972379;28;20186;-64
2024/03/10 12:56:30;;;;;;;6.07;2.40;;;15.10;93.40;;;;;;4972803;28;20598;-64
2024/03/10 12:58:56;;;;;;;3.77;3.30;;;15.10;92.50;;;;;;4989584;28;20413;-64
2024/03/10 13:01:23;;;;;;;7.77;3.00;;;15.30;92.60;;;;;;4972511;28;20281;-64
2024/03/10 13:03:48;;;;;;;12.40;5.00;;;15.40;92.00;;;;;;4988751;28;20205;-64
2024/03/10 13:06:14;;;;;;;8.73;4.13;;;15.40;92.20;;;;;;4981335;28;20830;-64
2024/03/10 13:08:41;;;;;;;6.60;4.63;;;15.30;90.80;;;;;;4967258;28;20272;-64
2024/03/10 13:11:06;;;;;;;5.30;4.33;;;15.30;91.20;;;;;;4987426;28;20473;-63
2024/03/10 13:13:32;;;;;;;5.43;3.43;;;15.10;91.40;;;;;;4977074;28;20419;-64
2024/03/10 13:15:57;;;;;;;3.20;2.27;;;15.00;91.40;;;;;;4972322;28;20682;-64
2024/03/10 13:18:23;;;;;;;7.83;3.60;;;14.90;91.30;;;;;;4986944;28;20717;-63
2024/03/10 13:20:49;;;;;;;6.07;3.80;;;14.80;91.40;;;;;;4986433;28;20248;-64
2024/03/10 13:23:14;;;;;;;6.93;5.37;;;14.60;92.40;;;;;;4986861;28;20550;-63
2024/03/10 13:25:40;;;;;;;12.43;5.03;;;14.40;93.10;;;;;;4986204;28;20193;-64
2024/03/10 13:28:06;;;;;;;5.33;4.73;;;14.40;92.90;;;;;;4969269;28;20181;-64
2024/03/10 13:30:32;;;;;;;5.60;3.00;;;14.50;93.30;;;;;;4974785;28;20471;-64
2024/03/10 13:32:58;;;;;;;10.97;4.40;;;14.60;93.20;;;;;;4968326;28;20587;-65
2024/03/10 13:35:24;;;;;;;4.90;4.23;;;14.80;93.10;;;;;;4969424;28;20428;-64
2024/03/10 13:37:49;;;;;;;4.90;4.57;;;14.60;93.00;;;;;;4974228;28;20773;-65
2024/03/10 13:40:19;;;;;;;9.80;5.23;;;14.60;92.50;;;;;;4987128;28;20266;-65
2024/03/10 13:42:46;;;;;;;4.60;4.03;;;14.70;92.30;;;;;;4970077;28;20189;-66
2024/03/10 13:45:12;;;;;;;12.50;4.43;;;14.60;92.60;;;;;;4960199;28;21000;-64
2024/03/10 13:47:39;;;;;;;3.37;3.17;;;14.70;92.60;;;;;;4971876;28;20575;-65
2024/03/10 13:50:13;;;;;;;5.83;4.67;;;14.50;92.40;;;;;;4968282;28;20486;-65
2024/03/10 13:52:39;;;;;;;4.60;3.00;;;14.40;92.90;;;;;;4982306;28;20545;-65
2024/03/10 13:55:06;;;;;;;5.90;4.43;;;14.50;93.50;;;;;;4963965;28;20442;-65
2024/03/10 13:57:32;;;;;;;8.33;6.20;;;14.50;93.30;;;;;;4958922;28;20933;-64
2024/03/10 14:00:00;;;;;;;6.00;4.77;;;14.30;93.30;;;;;;4954276;28;20438;-64
2024/03/10 14:02:25;;;;;;;3.23;2.67;;;14.20;93.80;;;;;;4939753;28;20711;-63
2024/03/10 14:04:52;;;;;;;5.73;4.60;;;14.00;94.00;;;;;;4952379;28;20701;-64
2024/03/10 14:07:18;;;;;;;7.50;5.63;;;13.70;94.70;;;;;;4935032;28;20203;-64
2024/03/10 14:09:45;;;;;;;4.43;3.47;;;13.50;95.10;;;;;;4970799;28;21003;-64
2024/03/10 14:12:14;;;;;;;4.10;2.80;;;13.20;95.50;;;;;;4957160;28;20211;-64
2024/03/10 14:14:41;;;;;;;10.47;5.03;;;13.10;96.20;;;;;;4964171;28;20421;-64
2024/03/10 14:17:06;;;;;;;5.27;4.20;;;13.00;96.70;;;;;;4987735;28;20448;-64
2024/03/10 14:19:32;;;;;;;7.13;4.17;;;12.90;97.00;;;;;;4955995;28;20421;-65
2024/03/10 14:21:58;;;;;;;8.53;5.50;;;12.90;97.00;;;;;;4988185;28;20548;-64
2024/03/10 14:24:25;;;;;;;5.33;3.40;;;12.90;97.30;;;;;;4970904;28;21051;-64
2024/03/10 14:26:53;;;;;;;4.33;3.20;;;12.80;97.30;;;;;;4955749;28;20925;-63
2024/03/10 14:29:19;;;;;;;5.50;4.13;;;12.80;97.30;;;;;;4988433;28;20409;-64
2024/03/10 14:31:46;;;;;;;8.13;5.90;;;12.80;97.30;;;;;;4988465;28;20515;-64
2024/03/10 14:34:11;;;;;;;9.03;4.57;;;12.70;97.30;;;;;;4966079;28;20427;-63
2024/03/10 14:36:37;;;;;;;3.93;2.27;;;12.70;97.30;;;;;;4962867;28;20425;-63
2024/03/10 14:39:04;;;;;;;8.13;4.43;;;12.70;97.30;;;;;;4981463;28;20181;-64
2024/03/10 14:41:32;;;;;;;8.20;5.13;;;12.70;97.30;;;;;;4988542;28;20244;-64
2024/03/10 14:43:58;;;;;;;3.13;2.90;;;12.60;97.30;;;;;;4988114;28;20512;-63
2024/03/10 14:46:23;;;;;;;9.27;4.70;;;12.60;97.30;;;;;;4987993;28;20417;-64
2024/03/10 14:48:49;;;;;;;19.77;6.30;;;12.60;97.30;;;;;;4987805;28;20424;-64
2024/03/10 14:51:15;;;;;;;9.37;5.37;;;12.60;97.30;;;;;;4980263;28;20214;-63
2024/03/10 14:53:41;;;;;;;4.23;3.67;;;12.50;97.30;;;;;;4955781;28;20436;-63
2024/03/10 14:56:07;;;;;;;3.27;3.07;;;12.40;97.30;;;;;;4970156;28;20999;-64
2024/03/10 14:58:33;;;;;;;6.03;3.30;;;12.40;97.30;;;;;;4988408;28;20173;-63
2024/03/10 15:00:58;;;;;;;12.23;4.67;;;12.30;97.30;;;;;;4987792;28;20826;-63
2024/03/10 15:03:24;;;;;;;4.57;3.23;;;12.30;97.30;;;;;;4961113;28;20236;-64
2024/03/10 15:05:51;;;;;;;8.07;4.60;;;12.30;97.30;;;;;;4967978;28;20189;-63
2024/03/10 15:08:17;;;;;;;4.93;4.10;;;12.30;97.30;;;;;;4971002;28;20424;-64
2024/03/10 15:10:49;;;;;;;12.10;4.37;;;12.20;97.30;;;;;;4973331;28;20696;-64
2024/03/10 15:13:16;;;;;;;7.57;5.93;;;12.20;97.30;;;;;;4973726;28;20413;-64
2024/03/10 15:15:44;;;;;;;5.10;4.63;;;12.20;97.30;;;;;;4987337;28;20421;-64
2024/03/10 15:18:10;;;;;;;9.60;4.20;;;12.10;97.30;;;;;;4969556;28;20425;-64
2024/03/10 15:20:42;;;;;;;7.23;4.77;;;12.10;97.30;;;;;;4986965;28;20443;-64
2024/03/10 15:23:08;;;;;;;7.80;4.80;;;12.10;97.30;;;;;;4987552;28;20182;-63
2024/03/10 15:25:34;;;;;;;5.23;3.83;;;12.00;97.30;;;;;;4970404;28;20425;-64
2024/03/10 15:28:00;;;;;;;6.33;4.30;;;12.00;97.30;;;;;;4970447;28;20775;-64
2024/03/10 15:30:26;;;;;;;6.97;6.47;;;12.00;97.30;;;;;;4973814;28;20220;-65
2024/03/10 15:32:53;;;;;;;4.27;3.43;;;12.00;97.30;;;;;;4974852;28;20413;-64
2024/03/10 15:35:19;;;;;;;5.23;3.67;;;11.90;97.30;;;;;;4973693;28;20976;-64
2024/03/10 15:37:45;;;;;;;19.23;6.40;;;11.90;97.30;;;;;;4966572;28;20414;-64
2024/03/10 15:40:12;;;;;;;5.50;4.00;;;11.80;97.30;;;;;;4954469;28;20298;-64
2024/03/10 15:42:41;;;;;;;5.13;4.87;;;11.80;97.30;;;;;;4958632;28;20466;-64
2024/03/10 15:45:11;;;;;;;8.30;3.07;;;11.70;97.30;;;;;;4970656;28;20493;-63
2024/03/10 15:47:37;;;;;;;6.40;3.80;;;11.70;97.30;;;;;;4954017;28;20436;-64
2024/03/10 15:50:04;;;;;;;3.87;3.67;;;11.70;97.30;;;;;;4971139;28;20505;-63
2024/03/10 15:52:30;;;;;;;3.10;2.90;;;11.60;97.30;;;;;;4972270;28;20774;-64
2024/03/10 15:54:55;;;;;;;14.90;3.97;;;11.60;97.30;;;;;;4946002;28;20946;-64
2024/03/10 15:57:22;;;;;;;6.37;4.57;;;11.50;97.30;;;;;;4954035;28;20599;-64
2024/03/10 15:59:47;;;;;;;14.50;6.43;;;11.50;97.30;;;;;;4946247;28;20352;-66
2024/03/10 16:02:13;;;;;;;6.80;4.07;;;11.50;97.30;;;;;;4978421;28;20973;-66
2024/03/10 16:04:42;;;;;;;6.20;4.73;;;11.40;97.30;;;;;;4971273;28;20467;-65
2024/03/10 16:07:08;;;;;;;5.50;2.60;;;11.40;97.30;;;;;;4969996;28;20261;-65
2024/03/10 16:09:33;;;;;;;7.80;4.73;;;11.40;97.30;;;;;;4953779;28;20938;-66
2024/03/10 16:12:00;;;;;;;10.17;4.07;;;11.30;97.30;;;;;;4952244;28;21032;-66
2024/03/10 16:14:25;;;;;;;7.83;5.43;;;11.30;97.30;;;;;;4970544;28;20210;-66
2024/03/10 16:16:51;;;;;;;7.40;4.03;;;11.30;97.30;;;;;;4969694;28;20442;-66
2024/03/10 16:19:18;;;;;;;5.03;3.53;;;11.20;97.30;;;;;;4970763;28;20697;-66
2024/03/10 16:21:45;;;;;;;8.97;4.57;;;11.20;97.30;;;;;;4970095;28;20279;-65
2024/03/10 16:24:13;;;;;;;6.47;4.90;;;11.10;97.30;;;;;;4955185;28;20429;-66
2024/03/10 16:26:42;;;;;;;6.60;4.97;;;11.10;97.30;;;;;;4957726;28;20426;-66
2024/03/10 16:29:11;;;;;;;6.17;3.63;;;11.00;97.30;;;;;;4961998;28;20415;-66
2024/03/10 16:31:37;;;;;;;11.17;4.60;;;11.00;97.30;;;;;;4953960;28;20501;-66
2024/03/10 16:34:06;;;;;;;11.97;6.13;;;10.90;97.30;;;;;;4969009;28;20910;-66
2024/03/10 16:36:33;;;;;;;13.67;3.60;;;10.90;97.30;;;;;;4952592;28;20433;-66
2024/03/10 16:39:00;;;;;;;3.63;3.37;;;10.90;97.30;;;;;;4961631;28;20426;-66
2024/03/10 16:41:32;;;;;;;8.50;4.40;;;10.80;97.30;;;;;;4951525;28;20460;-66
2024/03/10 16:44:00;;;;;;;5.50;3.73;;;10.80;97.30;;;;;;4951360;28;20434;-66
2024/03/10 16:46:25;;;;;;;11.90;3.90;;;10.70;97.30;;;;;;4963792;28;20801;-66
2024/03/10 16:48:51;;;;;;;4.50;2.40;;;10.70;97.30;;;;;;4950598;28;20418;-66
2024/03/10 16:51:17;;;;;;;5.33;3.67;;;10.60;97.30;;;;;;4962434;28;20229;-66
2024/03/10 16:53:43;;;;;;;5.50;5.20;;;10.60;97.30;;;;;;4968581;28;20814;-66
2024/03/10 16:56:09;;;;;;;12.40;5.40;;;10.60;97.30;;;;;;4967658;28;20184;-65
2024/03/10 16:58:36;;;;;;;7.80;5.67;;;10.50;97.30;;;;;;4951573;28;20185;-65
2024/03/10 17:01:06;;;;;;;7.70;3.13;;;10.50;97.30;;;;;;4950108;28;20449;-65
2024/03/10 17:03:32;;;;;;;7.83;4.10;;;10.50;97.30;;;;;;4952939;28;20442;-65
2024/03/10 17:05:58;;;;;;;10.83;4.90;;;10.40;97.30;;;;;;4956879;28;20428;-65
2024/03/10 17:08:24;;;;;;;4.63;2.93;;;10.40;97.30;;;;;;4951384;28;20193;-65
2024/03/10 17:10:49;;;;;;;16.97;6.47;;;10.30;97.30;;;;;;4968077;28;20210;-66
2024/03/10 17:13:15;;;;;;;4.80;3.77;;;10.30;97.30;;;;;;4967943;28;20186;-67
2024/03/10 17:15:42;;;;;;;6.13;4.67;;;10.30;97.30;;;;;;4968576;28;20424;-67
2024/03/10 17:18:08;;;;;;;12.00;4.53;;;10.20;97.30;;;;;;4949617;28;20443;-67
2024/03/10 17:20:34;;;;;;;18.27;5.03;;;10.20;97.30;;;;;;4950393;28;20460;-67
2024/03/10 17:23:01;;;;;;;4.07;3.40;;;10.10;97.30;;;;;;4950187;28;20214;-65
2024/03/10 17:25:28;;;;;;;12.37;5.43;;;10.10;97.30;;;;;;4951029;28;20429;-65
2024/03/10 17:27:54;;;;;;;4.37;2.77;;;10.00;97.30;;;;;;4950470;28;20468;-65
2024/03/10 17:30:19;;;;;;;4.30;2.97;;;10.00;97.30;;;;;;4968964;28;20493;-65
2024/03/10 17:32:45;;;;;;;14.10;5.40;;;9.90;97.30;;;;;;4968011;28;20433;-65
2024/03/10 17:37:47;;;;;;;4.03;3.20;;;9.90;97.30;;;;;;4962205;28;20242;-83
2024/03/10 17:40:13;;;;;;;5.20;2.87;;;9.90;97.30;;;;;;4956464;28;20426;-83
2024/03/10 17:42:40;;;;;;;10.00;5.43;;;9.80;97.30;;;;;;4976985;28;20203;-83
2024/03/10 17:45:06;;;;;;;3.40;2.90;;;9.80;97.30;;;;;;4940148;28;20421;-83
2024/03/10 17:47:35;;;;;;;5.50;3.57;;;9.70;97.30;;;;;;4949139;28;20460;-83
2024/03/10 17:50:05;;;;;;;8.00;2.70;;;9.70;97.30;;;;;;4954775;28;20482;-83
2024/03/10 17:52:31;;;;;;;5.10;3.77;;;9.60;97.30;;;;;;4971415;28;20414;-83
2024/03/10 17:54:56;;;;;;;5.90;4.23;;;9.60;97.30;;;;;;4954536;28;20803;-83
2024/03/10 17:57:24;;;;;;;4.10;3.00;;;9.60;97.30;;;;;;4948204;28;20359;-83
2024/03/10 17:59:51;;;;;;;8.73;3.07;;;9.50;97.30;;;;;;4954458;28;20618;-83
2024/03/10 18:02:17;;;;;;;10.83;4.07;;;9.50;97.30;;;;;;4954061;28;20781;-83
2024/03/10 18:04:42;;;;;;;6.37;3.30;;;9.40;97.30;;;;;;4954650;28;20464;-83
2024/03/10 18:07:08;;;;;;;5.87;5.43;;;9.40;97.30;;;;;;4973431;28;20209;-83
2024/03/10 18:09:33;;;;;;;5.73;3.30;;;9.40;97.30;;;;;;4958628;28;20274;-84
2024/03/10 18:12:00;;;;;;;6.00;4.13;;;9.30;97.30;;;;;;4952778;28;20202;-82
2024/03/10 18:14:25;;;;;;;3.03;2.83;;;9.20;97.30;;;;;;4944906;28;20202;-86
2024/03/10 18:16:51;;;;;;;4.93;4.43;;;9.20;97.30;;;;;;4948284;28;20473;-84
2024/03/10 18:19:17;;;;;;;10.03;3.80;;;9.20;97.30;;;;;;4945270;28;20179;-83
2024/03/10 18:21:48;;;;;;;3.17;2.97;;;9.10;97.30;;;;;;4956017;28;20418;-83
2024/03/10 18:24:17;;;;;;;8.27;3.70;;;9.10;97.30;;;;;;4948603;28;20240;-83
2024/03/10 18:26:43;;;;;;;3.60;3.40;;;9.10;97.30;;;;;;4950979;28;20626;-83
2024/03/10 18:29:10;;;;;;;6.60;4.07;;;9.00;97.30;;;;;;4953742;28;20429;-83
2024/03/10 18:31:39;;;;;;;6.20;4.83;;;9.00;97.30;;;;;;4953876;28;20462;-81
2024/03/10 18:34:10;;;;;;;6.80;3.43;;;9.00;97.30;;;;;;4968766;28;21004;-84
2024/03/10 18:36:36;;;;;;;6.70;3.30;;;9.00;97.30;;;;;;4952571;28;20472;-85